sensor_id;sensor_type;location;lat;lon;timestamp;P1;durP1;ratioP1;P2;durP2;ratioP2
16113;SDS011;8161;-33.910;151.156;2023-04-25T00:00:34;12.50;;;2.30;;
16113;SDS011;8161;-33.910;151.156;2023-04-25T00:03:01;9.93;;;2.25;;
16113;SDS011;8161;-33.910;151.156;2023-04-25T00:05:28;12.05;;;2.58;;
16113;SDS011;8161;-33.910;151.156;2023-04-25T00:07:56;9.27;;;2.75;;
16113;SDS011;8161;-33.910;151.156;2023-04-25T00:10:24;12.63;;;2.97;;
16113;SDS011;8161;-33.910;151.156;2023-04-25T00:12:57;11.63;;;3.42;;
16113;SDS011;8161;-33.910;151.156;2023-04-25T00:15:24;13.70;;;3.60;;
16113;SDS011;8161;-33.910;151.156;2023-04-25T00:17:51;12.13;;;3.55;;
16113;SDS011;8161;-33.910;151.156;2023-04-25T00:20:18;11.50;;;3.30;;
16113;SDS011;8161;-33.910;151.156;2023-04-25T00:22:45;9.85;;;3.20;;
16113;SDS011;8161;-33.910;151.156;2023-04-25T00:25:16;12.88;;;3.67;;
16113;SDS011;8161;-33.910;151.156;2023-04-25T00:27:43;8.32;;;3.78;;
16113;SDS011;8161;-33.910;151.156;2023-04-25T00:30:11;11.40;;;3.50;;
16113;SDS011;8161;-33.910;151.156;2023-04-25T00:32:41;11.25;;;3.67;;
16113;SDS011;8161;-33.910;151.156;2023-04-25T00:35:09;9.82;;;3.95;;
16113;SDS011;8161;-33.910;151.156;2023-04-25T00:37:36;8.10;;;3.92;;
16113;SDS011;8161;-33.910;151.156;2023-04-25T00:40:07;9.65;;;4.10;;
16113;SDS011;8161;-33.910;151.156;2023-04-25T00:42:35;7.65;;;4.00;;
16113;SDS011;8161;-33.910;151.156;2023-04-25T00:45:03;9.15;;;3.47;;
16113;SDS011;8161;-33.910;151.156;2023-04-25T00:47:32;7.93;;;3.20;;
16113;SDS011;8161;-33.910;151.156;2023-04-25T00:50:01;9.50;;;3.43;;
16113;SDS011;8161;-33.910;151.156;2023-04-25T00:52:29;7.25;;;2.95;;
16113;SDS011;8161;-33.910;151.156;2023-04-25T00:54:56;9.80;;;3.15;;
16113;SDS011;8161;-33.910;151.156;2023-04-25T00:57:23;9.60;;;2.83;;
16113;SDS011;8161;-33.910;151.156;2023-04-25T00:59:51;9.50;;;3.22;;
16113;SDS011;8161;-33.910;151.156;2023-04-25T01:02:18;7.30;;;2.70;;
16113;SDS011;8161;-33.910;151.156;2023-04-25T01:04:47;8.63;;;3.05;;
16113;SDS011;8161;-33.910;151.156;2023-04-25T01:07:14;11.03;;;3.00;;
16113;SDS011;8161;-33.910;151.156;2023-04-25T01:09:42;10.30;;;3.20;;
16113;SDS011;8161;-33.910;151.156;2023-04-25T01:12:09;8.35;;;2.78;;
16113;SDS011;8161;-33.910;151.156;2023-04-25T01:14:36;9.13;;;3.00;;
16113;SDS011;8161;-33.910;151.156;2023-04-25T01:17:04;7.83;;;3.17;;
16113;SDS011;8161;-33.910;151.156;2023-04-25T01:19:33;7.15;;;2.70;;
16113;SDS011;8161;-33.910;151.156;2023-04-25T01:22:01;8.30;;;2.90;;
16113;SDS011;8161;-33.910;151.156;2023-04-25T01:24:32;8.77;;;3.10;;
16113;SDS011;8161;-33.910;151.156;2023-04-25T01:27:00;7.18;;;2.95;;
16113;SDS011;8161;-33.910;151.156;2023-04-25T01:29:28;10.37;;;3.07;;
16113;SDS011;8161;-33.910;151.156;2023-04-25T01:31:56;8.10;;;2.75;;
16113;SDS011;8161;-33.910;151.156;2023-04-25T01:34:24;8.23;;;3.20;;
16113;SDS011;8161;-33.910;151.156;2023-04-25T01:36:51;8.13;;;3.10;;
16113;SDS011;8161;-33.910;151.156;2023-04-25T01:39:19;9.30;;;2.87;;
16113;SDS011;8161;-33.910;151.156;2023-04-25T01:41:50;7.88;;;3.00;;
16113;SDS011;8161;-33.910;151.156;2023-04-25T01:44:17;11.73;;;3.22;;
16113;SDS011;8161;-33.910;151.156;2023-04-25T01:46:45;7.32;;;2.78;;
16113;SDS011;8161;-33.910;151.156;2023-04-25T01:49:12;10.17;;;3.37;;
16113;SDS011;8161;-33.910;151.156;2023-04-25T01:51:39;8.90;;;3.05;;
16113;SDS011;8161;-33.910;151.156;2023-04-25T01:54:07;8.30;;;3.10;;
16113;SDS011;8161;-33.910;151.156;2023-04-25T01:56:37;8.98;;;3.30;;
16113;SDS011;8161;-33.910;151.156;2023-04-25T01:59:05;8.68;;;3.10;;
16113;SDS011;8161;-33.910;151.156;2023-04-25T02:01:35;8.18;;;3.03;;
16113;SDS011;8161;-33.910;151.156;2023-04-25T02:04:12;10.30;;;3.38;;
16113;SDS011;8161;-33.910;151.156;2023-04-25T02:06:39;9.10;;;3.40;;
16113;SDS011;8161;-33.910;151.156;2023-04-25T02:09:06;8.07;;;2.78;;
16113;SDS011;8161;-33.910;151.156;2023-04-25T02:11:33;7.75;;;2.80;;
16113;SDS011;8161;-33.910;151.156;2023-04-25T02:14:01;8.73;;;3.17;;
16113;SDS011;8161;-33.910;151.156;2023-04-25T02:16:31;9.48;;;3.03;;
16113;SDS011;8161;-33.910;151.156;2023-04-25T02:18:58;8.80;;;2.90;;
16113;SDS011;8161;-33.910;151.156;2023-04-25T02:21:25;9.57;;;2.55;;
16113;SDS011;8161;-33.910;151.156;2023-04-25T02:23:53;6.75;;;2.50;;
16113;SDS011;8161;-33.910;151.156;2023-04-25T02:26:20;9.60;;;2.67;;
16113;SDS011;8161;-33.910;151.156;2023-04-25T02:28:49;8.43;;;2.90;;
16113;SDS011;8161;-33.910;151.156;2023-04-25T02:31:17;9.47;;;3.20;;
16113;SDS011;8161;-33.910;151.156;2023-04-25T02:33:44;8.50;;;2.53;;
16113;SDS011;8161;-33.910;151.156;2023-04-25T02:36:11;9.23;;;2.90;;
16113;SDS011;8161;-33.910;151.156;2023-04-25T02:38:39;8.53;;;2.80;;
16113;SDS011;8161;-33.910;151.156;2023-04-25T02:41:07;5.78;;;2.42;;
16113;SDS011;8161;-33.910;151.156;2023-04-25T02:43:34;7.30;;;2.40;;
16113;SDS011;8161;-33.910;151.156;2023-04-25T02:46:01;8.45;;;2.47;;
16113;SDS011;8161;-33.910;151.156;2023-04-25T02:48:29;7.72;;;2.85;;
16113;SDS011;8161;-33.910;151.156;2023-04-25T02:50:56;6.05;;;2.30;;
16113;SDS011;8161;-33.910;151.156;2023-04-25T02:53:26;10.07;;;3.05;;
16113;SDS011;8161;-33.910;151.156;2023-04-25T02:55:53;8.00;;;3.07;;
16113;SDS011;8161;-33.910;151.156;2023-04-25T02:58:23;8.18;;;2.63;;
16113;SDS011;8161;-33.910;151.156;2023-04-25T03:00:51;8.63;;;3.17;;
16113;SDS011;8161;-33.910;151.156;2023-04-25T03:03:18;6.97;;;2.30;;
16113;SDS011;8161;-33.910;151.156;2023-04-25T03:05:50;7.25;;;2.58;;
16113;SDS011;8161;-33.910;151.156;2023-04-25T03:08:17;8.07;;;2.63;;
16113;SDS011;8161;-33.910;151.156;2023-04-25T03:10:45;8.07;;;2.67;;
16113;SDS011;8161;-33.910;151.156;2023-04-25T03:13:13;7.53;;;2.30;;
16113;SDS011;8161;-33.910;151.156;2023-04-25T03:15:40;9.02;;;2.17;;
16113;SDS011;8161;-33.910;151.156;2023-04-25T03:18:10;6.38;;;2.50;;
16113;SDS011;8161;-33.910;151.156;2023-04-25T03:20:37;7.22;;;2.28;;
16113;SDS011;8161;-33.910;151.156;2023-04-25T03:23:06;6.30;;;2.38;;
16113;SDS011;8161;-33.910;151.156;2023-04-25T03:25:33;7.90;;;2.67;;
16113;SDS011;8161;-33.910;151.156;2023-04-25T03:28:00;7.97;;;2.50;;
16113;SDS011;8161;-33.910;151.156;2023-04-25T03:30:27;10.70;;;2.53;;
16113;SDS011;8161;-33.910;151.156;2023-04-25T03:32:55;7.60;;;2.38;;
16113;SDS011;8161;-33.910;151.156;2023-04-25T03:35:22;9.77;;;2.47;;
16113;SDS011;8161;-33.910;151.156;2023-04-25T03:37:49;9.83;;;2.47;;
16113;SDS011;8161;-33.910;151.156;2023-04-25T03:40:16;7.32;;;2.30;;
16113;SDS011;8161;-33.910;151.156;2023-04-25T03:42:43;10.35;;;2.80;;
16113;SDS011;8161;-33.910;151.156;2023-04-25T03:45:11;9.38;;;2.60;;
16113;SDS011;8161;-33.910;151.156;2023-04-25T03:47:38;10.45;;;2.35;;
16113;SDS011;8161;-33.910;151.156;2023-04-25T03:50:05;9.80;;;2.20;;
16113;SDS011;8161;-33.910;151.156;2023-04-25T03:52:33;7.67;;;2.50;;
16113;SDS011;8161;-33.910;151.156;2023-04-25T03:55:00;9.75;;;2.58;;
16113;SDS011;8161;-33.910;151.156;2023-04-25T03:57:27;8.25;;;2.22;;
16113;SDS011;8161;-33.910;151.156;2023-04-25T03:59:55;9.65;;;2.30;;
16113;SDS011;8161;-33.910;151.156;2023-04-25T04:02:22;11.60;;;2.45;;
16113;SDS011;8161;-33.910;151.156;2023-04-25T04:04:49;12.02;;;2.50;;
16113;SDS011;8161;-33.910;151.156;2023-04-25T04:07:16;9.13;;;2.60;;
16113;SDS011;8161;-33.910;151.156;2023-04-25T04:09:43;10.07;;;2.53;;
16113;SDS011;8161;-33.910;151.156;2023-04-25T04:12:11;9.27;;;2.38;;
16113;SDS011;8161;-33.910;151.156;2023-04-25T04:14:38;11.13;;;2.83;;
16113;SDS011;8161;-33.910;151.156;2023-04-25T04:17:06;8.70;;;2.37;;
16113;SDS011;8161;-33.910;151.156;2023-04-25T04:19:33;8.75;;;2.20;;
16113;SDS011;8161;-33.910;151.156;2023-04-25T04:22:00;9.13;;;2.65;;
16113;SDS011;8161;-33.910;151.156;2023-04-25T04:24:27;7.72;;;2.20;;
16113;SDS011;8161;-33.910;151.156;2023-04-25T04:26:54;8.23;;;2.33;;
16113;SDS011;8161;-33.910;151.156;2023-04-25T04:29:22;10.88;;;2.70;;
16113;SDS011;8161;-33.910;151.156;2023-04-25T04:31:50;15.40;;;2.78;;
16113;SDS011;8161;-33.910;151.156;2023-04-25T04:34:18;10.93;;;2.45;;
16113;SDS011;8161;-33.910;151.156;2023-04-25T04:36:45;10.77;;;2.70;;
16113;SDS011;8161;-33.910;151.156;2023-04-25T04:39:12;10.05;;;2.78;;
16113;SDS011;8161;-33.910;151.156;2023-04-25T04:41:43;10.15;;;2.60;;
16113;SDS011;8161;-33.910;151.156;2023-04-25T04:44:10;10.73;;;2.38;;
16113;SDS011;8161;-33.910;151.156;2023-04-25T04:46:38;10.43;;;2.72;;
16113;SDS011;8161;-33.910;151.156;2023-04-25T04:49:06;12.13;;;2.67;;
16113;SDS011;8161;-33.910;151.156;2023-04-25T04:51:33;12.10;;;2.80;;
16113;SDS011;8161;-33.910;151.156;2023-04-25T04:54:01;8.98;;;2.65;;
16113;SDS011;8161;-33.910;151.156;2023-04-25T04:56:31;11.27;;;2.67;;
16113;SDS011;8161;-33.910;151.156;2023-04-25T04:58:58;9.52;;;2.50;;
16113;SDS011;8161;-33.910;151.156;2023-04-25T05:01:27;12.95;;;2.63;;
16113;SDS011;8161;-33.910;151.156;2023-04-25T05:03:55;10.75;;;2.28;;
16113;SDS011;8161;-33.910;151.156;2023-04-25T05:06:26;13.98;;;2.97;;
16113;SDS011;8161;-33.910;151.156;2023-04-25T05:08:57;10.07;;;2.60;;
16113;SDS011;8161;-33.910;151.156;2023-04-25T05:11:25;13.00;;;3.03;;
16113;SDS011;8161;-33.910;151.156;2023-04-25T05:13:52;10.23;;;2.70;;
16113;SDS011;8161;-33.910;151.156;2023-04-25T05:16:20;12.63;;;2.60;;
16113;SDS011;8161;-33.910;151.156;2023-04-25T05:18:47;12.07;;;2.75;;
16113;SDS011;8161;-33.910;151.156;2023-04-25T05:21:15;12.18;;;2.85;;
16113;SDS011;8161;-33.910;151.156;2023-04-25T05:23:42;9.87;;;2.70;;
16113;SDS011;8161;-33.910;151.156;2023-04-25T05:26:09;10.43;;;2.55;;
16113;SDS011;8161;-33.910;151.156;2023-04-25T05:28:42;11.77;;;2.73;;
16113;SDS011;8161;-33.910;151.156;2023-04-25T05:31:09;13.23;;;2.92;;
16113;SDS011;8161;-33.910;151.156;2023-04-25T05:33:37;14.50;;;2.95;;
16113;SDS011;8161;-33.910;151.156;2023-04-25T05:36:04;9.18;;;2.50;;
16113;SDS011;8161;-33.910;151.156;2023-04-25T05:38:32;11.77;;;2.55;;
16113;SDS011;8161;-33.910;151.156;2023-04-25T05:40:59;10.80;;;2.58;;
16113;SDS011;8161;-33.910;151.156;2023-04-25T05:43:26;15.82;;;3.03;;
16113;SDS011;8161;-33.910;151.156;2023-04-25T05:45:53;8.75;;;2.92;;
16113;SDS011;8161;-33.910;151.156;2023-04-25T05:48:21;14.75;;;3.42;;
16113;SDS011;8161;-33.910;151.156;2023-04-25T05:50:48;16.45;;;2.88;;
16113;SDS011;8161;-33.910;151.156;2023-04-25T05:53:17;13.47;;;3.00;;
16113;SDS011;8161;-33.910;151.156;2023-04-25T05:55:44;11.27;;;2.78;;
16113;SDS011;8161;-33.910;151.156;2023-04-25T05:58:12;11.13;;;2.90;;
16113;SDS011;8161;-33.910;151.156;2023-04-25T06:00:39;12.70;;;2.85;;
16113;SDS011;8161;-33.910;151.156;2023-04-25T06:03:07;13.53;;;2.90;;
16113;SDS011;8161;-33.910;151.156;2023-04-25T06:05:35;11.30;;;2.75;;
16113;SDS011;8161;-33.910;151.156;2023-04-25T06:08:02;10.55;;;2.90;;
16113;SDS011;8161;-33.910;151.156;2023-04-25T06:10:30;13.50;;;2.58;;
16113;SDS011;8161;-33.910;151.156;2023-04-25T06:12:57;14.53;;;2.87;;
16113;SDS011;8161;-33.910;151.156;2023-04-25T06:15:24;12.07;;;2.70;;
16113;SDS011;8161;-33.910;151.156;2023-04-25T06:17:52;10.75;;;2.53;;
16113;SDS011;8161;-33.910;151.156;2023-04-25T06:20:19;13.63;;;2.50;;
16113;SDS011;8161;-33.910;151.156;2023-04-25T06:22:50;9.32;;;2.22;;
16113;SDS011;8161;-33.910;151.156;2023-04-25T06:25:18;11.90;;;2.90;;
16113;SDS011;8161;-33.910;151.156;2023-04-25T06:27:45;10.83;;;2.90;;
16113;SDS011;8161;-33.910;151.156;2023-04-25T06:30:13;15.30;;;2.72;;
16113;SDS011;8161;-33.910;151.156;2023-04-25T06:32:40;14.77;;;2.90;;
16113;SDS011;8161;-33.910;151.156;2023-04-25T06:35:07;9.10;;;2.30;;
16113;SDS011;8161;-33.910;151.156;2023-04-25T06:37:35;16.30;;;3.00;;
16113;SDS011;8161;-33.910;151.156;2023-04-25T06:40:02;11.25;;;2.78;;
16113;SDS011;8161;-33.910;151.156;2023-04-25T06:42:30;13.65;;;2.45;;
16113;SDS011;8161;-33.910;151.156;2023-04-25T06:44:57;13.52;;;2.95;;
16113;SDS011;8161;-33.910;151.156;2023-04-25T06:47:25;12.20;;;2.63;;
16113;SDS011;8161;-33.910;151.156;2023-04-25T06:49:52;14.02;;;2.75;;
16113;SDS011;8161;-33.910;151.156;2023-04-25T06:52:19;13.32;;;2.47;;
16113;SDS011;8161;-33.910;151.156;2023-04-25T06:54:46;13.77;;;2.70;;
16113;SDS011;8161;-33.910;151.156;2023-04-25T06:57:13;11.43;;;2.53;;
16113;SDS011;8161;-33.910;151.156;2023-04-25T06:59:40;9.13;;;2.50;;
16113;SDS011;8161;-33.910;151.156;2023-04-25T07:02:07;12.88;;;3.10;;
16113;SDS011;8161;-33.910;151.156;2023-04-25T07:04:35;14.05;;;2.60;;
16113;SDS011;8161;-33.910;151.156;2023-04-25T07:07:02;14.90;;;3.10;;
16113;SDS011;8161;-33.910;151.156;2023-04-25T07:09:30;17.98;;;3.47;;
16113;SDS011;8161;-33.910;151.156;2023-04-25T07:11:59;15.05;;;2.85;;
16113;SDS011;8161;-33.910;151.156;2023-04-25T07:14:27;12.25;;;2.60;;
16113;SDS011;8161;-33.910;151.156;2023-04-25T07:16:54;13.40;;;2.80;;
16113;SDS011;8161;-33.910;151.156;2023-04-25T07:19:22;17.25;;;3.53;;
16113;SDS011;8161;-33.910;151.156;2023-04-25T07:21:52;12.32;;;2.88;;
16113;SDS011;8161;-33.910;151.156;2023-04-25T07:24:19;18.75;;;4.82;;
16113;SDS011;8161;-33.910;151.156;2023-04-25T07:26:47;13.98;;;2.95;;
16113;SDS011;8161;-33.910;151.156;2023-04-25T07:29:14;14.50;;;3.13;;
16113;SDS011;8161;-33.910;151.156;2023-04-25T07:31:42;11.20;;;2.45;;
16113;SDS011;8161;-33.910;151.156;2023-04-25T07:34:10;10.20;;;2.72;;
16113;SDS011;8161;-33.910;151.156;2023-04-25T07:36:37;16.52;;;3.03;;
16113;SDS011;8161;-33.910;151.156;2023-04-25T07:39:05;17.95;;;3.20;;
16113;SDS011;8161;-33.910;151.156;2023-04-25T07:41:35;15.73;;;3.33;;
16113;SDS011;8161;-33.910;151.156;2023-04-25T07:44:02;19.38;;;3.92;;
16113;SDS011;8161;-33.910;151.156;2023-04-25T07:46:30;15.02;;;3.22;;
16113;SDS011;8161;-33.910;151.156;2023-04-25T07:48:57;12.48;;;3.30;;
16113;SDS011;8161;-33.910;151.156;2023-04-25T07:51:24;13.07;;;3.00;;
16113;SDS011;8161;-33.910;151.156;2023-04-25T07:53:51;16.43;;;2.93;;
16113;SDS011;8161;-33.910;151.156;2023-04-25T07:56:18;12.65;;;3.20;;
16113;SDS011;8161;-33.910;151.156;2023-04-25T07:58:46;11.88;;;2.88;;
16113;SDS011;8161;-33.910;151.156;2023-04-25T08:01:13;12.18;;;2.92;;
16113;SDS011;8161;-33.910;151.156;2023-04-25T08:03:40;12.68;;;2.80;;
16113;SDS011;8161;-33.910;151.156;2023-04-25T08:06:07;13.85;;;3.25;;
16113;SDS011;8161;-33.910;151.156;2023-04-25T08:08:35;14.73;;;3.10;;
16113;SDS011;8161;-33.910;151.156;2023-04-25T08:11:02;13.33;;;3.20;;
16113;SDS011;8161;-33.910;151.156;2023-04-25T08:13:29;11.10;;;2.67;;
16113;SDS011;8161;-33.910;151.156;2023-04-25T08:15:56;13.25;;;2.95;;
16113;SDS011;8161;-33.910;151.156;2023-04-25T08:18:23;14.32;;;3.17;;
16113;SDS011;8161;-33.910;151.156;2023-04-25T08:20:51;16.08;;;3.10;;
16113;SDS011;8161;-33.910;151.156;2023-04-25T08:23:18;15.10;;;3.00;;
16113;SDS011;8161;-33.910;151.156;2023-04-25T08:25:45;15.13;;;3.15;;
16113;SDS011;8161;-33.910;151.156;2023-04-25T08:28:12;16.48;;;2.95;;
16113;SDS011;8161;-33.910;151.156;2023-04-25T08:30:40;14.43;;;3.27;;
16113;SDS011;8161;-33.910;151.156;2023-04-25T08:33:07;15.73;;;3.28;;
16113;SDS011;8161;-33.910;151.156;2023-04-25T08:35:35;17.55;;;3.13;;
16113;SDS011;8161;-33.910;151.156;2023-04-25T08:38:03;14.07;;;3.00;;
16113;SDS011;8161;-33.910;151.156;2023-04-25T08:40:30;12.67;;;2.80;;
16113;SDS011;8161;-33.910;151.156;2023-04-25T08:43:04;18.55;;;3.40;;
16113;SDS011;8161;-33.910;151.156;2023-04-25T08:45:40;16.98;;;3.17;;
16113;SDS011;8161;-33.910;151.156;2023-04-25T08:48:12;15.50;;;3.35;;
16113;SDS011;8161;-33.910;151.156;2023-04-25T08:50:51;19.33;;;4.15;;
16113;SDS011;8161;-33.910;151.156;2023-04-25T08:53:21;15.13;;;2.80;;
16113;SDS011;8161;-33.910;151.156;2023-04-25T08:55:57;13.27;;;3.15;;
16113;SDS011;8161;-33.910;151.156;2023-04-25T08:58:27;12.65;;;3.08;;
16113;SDS011;8161;-33.910;151.156;2023-04-25T09:00:54;14.90;;;2.93;;
16113;SDS011;8161;-33.910;151.156;2023-04-25T09:03:22;14.50;;;3.23;;
16113;SDS011;8161;-33.910;151.156;2023-04-25T09:05:52;14.57;;;3.13;;
16113;SDS011;8161;-33.910;151.156;2023-04-25T09:08:21;15.00;;;3.03;;
16113;SDS011;8161;-33.910;151.156;2023-04-25T09:10:49;15.55;;;3.15;;
16113;SDS011;8161;-33.910;151.156;2023-04-25T09:13:23;15.13;;;2.95;;
16113;SDS011;8161;-33.910;151.156;2023-04-25T09:15:53;16.58;;;3.00;;
16113;SDS011;8161;-33.910;151.156;2023-04-25T09:18:31;17.77;;;3.38;;
16113;SDS011;8161;-33.910;151.156;2023-04-25T09:21:10;15.15;;;3.25;;
16113;SDS011;8161;-33.910;151.156;2023-04-25T09:23:44;15.27;;;3.22;;
16113;SDS011;8161;-33.910;151.156;2023-04-25T09:26:17;13.48;;;3.40;;
16113;SDS011;8161;-33.910;151.156;2023-04-25T09:28:47;13.68;;;3.20;;
16113;SDS011;8161;-33.910;151.156;2023-04-25T09:31:21;17.98;;;3.47;;
16113;SDS011;8161;-33.910;151.156;2023-04-25T09:33:49;11.88;;;3.28;;
16113;SDS011;8161;-33.910;151.156;2023-04-25T09:36:27;14.60;;;2.97;;
16113;SDS011;8161;-33.910;151.156;2023-04-25T09:38:57;11.07;;;2.77;;
16113;SDS011;8161;-33.910;151.156;2023-04-25T09:41:29;22.42;;;3.53;;
16113;SDS011;8161;-33.910;151.156;2023-04-25T09:43:59;14.43;;;2.77;;
16113;SDS011;8161;-33.910;151.156;2023-04-25T09:46:32;14.18;;;3.17;;
16113;SDS011;8161;-33.910;151.156;2023-04-25T09:49:06;16.48;;;3.33;;
16113;SDS011;8161;-33.910;151.156;2023-04-25T09:51:33;17.17;;;3.00;;
16113;SDS011;8161;-33.910;151.156;2023-04-25T09:54:00;13.23;;;2.50;;
16113;SDS011;8161;-33.910;151.156;2023-04-25T09:56:29;14.15;;;2.65;;
16113;SDS011;8161;-33.910;151.156;2023-04-25T09:59:02;17.52;;;3.10;;
16113;SDS011;8161;-33.910;151.156;2023-04-25T10:01:32;17.23;;;3.00;;
16113;SDS011;8161;-33.910;151.156;2023-04-25T10:04:01;14.03;;;2.87;;
16113;SDS011;8161;-33.910;151.156;2023-04-25T10:06:32;13.20;;;2.80;;
16113;SDS011;8161;-33.910;151.156;2023-04-25T10:09:01;14.50;;;3.00;;
16113;SDS011;8161;-33.910;151.156;2023-04-25T10:11:31;14.60;;;3.42;;
16113;SDS011;8161;-33.910;151.156;2023-04-25T10:13:59;13.65;;;2.95;;
16113;SDS011;8161;-33.910;151.156;2023-04-25T10:16:29;13.38;;;2.83;;
16113;SDS011;8161;-33.910;151.156;2023-04-25T10:18:57;12.80;;;2.70;;
16113;SDS011;8161;-33.910;151.156;2023-04-25T10:21:25;15.27;;;3.35;;
16113;SDS011;8161;-33.910;151.156;2023-04-25T10:23:57;11.02;;;2.60;;
16113;SDS011;8161;-33.910;151.156;2023-04-25T10:26:25;13.02;;;2.70;;
16113;SDS011;8161;-33.910;151.156;2023-04-25T10:28:56;16.98;;;3.00;;
16113;SDS011;8161;-33.910;151.156;2023-04-25T10:31:26;13.52;;;2.67;;
16113;SDS011;8161;-33.910;151.156;2023-04-25T10:33:56;15.73;;;2.97;;
16113;SDS011;8161;-33.910;151.156;2023-04-25T10:36:25;12.70;;;2.50;;
16113;SDS011;8161;-33.910;151.156;2023-04-25T10:38:58;17.73;;;2.80;;
16113;SDS011;8161;-33.910;151.156;2023-04-25T10:41:45;12.13;;;2.30;;
16113;SDS011;8161;-33.910;151.156;2023-04-25T10:44:13;15.90;;;3.00;;
16113;SDS011;8161;-33.910;151.156;2023-04-25T10:46:42;13.57;;;2.90;;
16113;SDS011;8161;-33.910;151.156;2023-04-25T10:52:32;18.50;;;4.07;;
16113;SDS011;8161;-33.910;151.156;2023-04-25T10:54:54;11.18;;;2.50;;
16113;SDS011;8161;-33.910;151.156;2023-04-25T11:02:47;16.95;;;3.05;;
16113;SDS011;8161;-33.910;151.156;2023-04-25T11:07:52;16.30;;;3.47;;
16113;SDS011;8161;-33.910;151.156;2023-04-25T11:10:28;16.70;;;3.22;;
16113;SDS011;8161;-33.910;151.156;2023-04-25T11:12:57;13.88;;;2.92;;
16113;SDS011;8161;-33.910;151.156;2023-04-25T11:15:25;12.68;;;2.80;;
16113;SDS011;8161;-33.910;151.156;2023-04-25T11:17:53;16.30;;;2.90;;
16113;SDS011;8161;-33.910;151.156;2023-04-25T11:20:25;12.30;;;2.50;;
16113;SDS011;8161;-33.910;151.156;2023-04-25T11:22:54;13.18;;;2.90;;
16113;SDS011;8161;-33.910;151.156;2023-04-25T11:25:25;16.70;;;2.75;;
16113;SDS011;8161;-33.910;151.156;2023-04-25T11:27:57;11.27;;;2.50;;
16113;SDS011;8161;-33.910;151.156;2023-04-25T11:30:28;11.45;;;2.42;;
16113;SDS011;8161;-33.910;151.156;2023-04-25T11:32:58;14.20;;;2.57;;
16113;SDS011;8161;-33.910;151.156;2023-04-25T11:35:25;14.20;;;2.63;;
16113;SDS011;8161;-33.910;151.156;2023-04-25T11:37:53;17.65;;;3.10;;
16113;SDS011;8161;-33.910;151.156;2023-04-25T11:40:20;12.45;;;3.20;;
16113;SDS011;8161;-33.910;151.156;2023-04-25T11:42:47;14.20;;;3.20;;
16113;SDS011;8161;-33.910;151.156;2023-04-25T11:45:15;16.15;;;3.42;;
16113;SDS011;8161;-33.910;151.156;2023-04-25T11:47:44;13.27;;;3.05;;
16113;SDS011;8161;-33.910;151.156;2023-04-25T11:50:12;14.85;;;2.80;;
16113;SDS011;8161;-33.910;151.156;2023-04-25T11:52:40;13.97;;;2.83;;
16113;SDS011;8161;-33.910;151.156;2023-04-25T11:55:08;12.82;;;2.75;;
16113;SDS011;8161;-33.910;151.156;2023-04-25T11:57:40;14.38;;;3.17;;
16113;SDS011;8161;-33.910;151.156;2023-04-25T12:00:09;16.55;;;3.08;;
16113;SDS011;8161;-33.910;151.156;2023-04-25T12:02:43;11.40;;;2.90;;
16113;SDS011;8161;-33.910;151.156;2023-04-25T12:05:12;12.83;;;3.00;;
16113;SDS011;8161;-33.910;151.156;2023-04-25T12:07:42;15.50;;;3.35;;
16113;SDS011;8161;-33.910;151.156;2023-04-25T12:10:11;20.73;;;3.80;;
16113;SDS011;8161;-33.910;151.156;2023-04-25T12:12:43;16.52;;;3.25;;
16113;SDS011;8161;-33.910;151.156;2023-04-25T12:17:46;13.83;;;3.00;;
16113;SDS011;8161;-33.910;151.156;2023-04-25T12:20:18;15.00;;;2.70;;
16113;SDS011;8161;-33.910;151.156;2023-04-25T12:22:50;14.90;;;2.83;;
16113;SDS011;8161;-33.910;151.156;2023-04-25T12:28:10;17.20;;;3.80;;
16113;SDS011;8161;-33.910;151.156;2023-04-25T12:33:27;16.42;;;3.80;;
16113;SDS011;8161;-33.910;151.156;2023-04-25T12:35:55;16.45;;;3.55;;
16113;SDS011;8161;-33.910;151.156;2023-04-25T12:38:24;14.48;;;3.38;;
16113;SDS011;8161;-33.910;151.156;2023-04-25T12:41:01;16.35;;;3.92;;
16113;SDS011;8161;-33.910;151.156;2023-04-25T12:43:29;16.23;;;4.05;;
16113;SDS011;8161;-33.910;151.156;2023-04-25T12:45:56;13.00;;;3.40;;
16113;SDS011;8161;-33.910;151.156;2023-04-25T12:48:23;16.27;;;4.18;;
16113;SDS011;8161;-33.910;151.156;2023-04-25T12:50:50;17.45;;;3.88;;
16113;SDS011;8161;-33.910;151.156;2023-04-25T12:53:18;21.42;;;5.10;;
16113;SDS011;8161;-33.910;151.156;2023-04-25T12:55:49;14.60;;;3.23;;
16113;SDS011;8161;-33.910;151.156;2023-04-25T12:58:17;18.75;;;3.95;;
16113;SDS011;8161;-33.910;151.156;2023-04-25T13:00:46;16.35;;;3.45;;
16113;SDS011;8161;-33.910;151.156;2023-04-25T13:03:13;17.70;;;4.03;;
16113;SDS011;8161;-33.910;151.156;2023-04-25T13:05:41;16.20;;;3.60;;
16113;SDS011;8161;-33.910;151.156;2023-04-25T13:08:08;18.00;;;4.18;;
16113;SDS011;8161;-33.910;151.156;2023-04-25T13:10:36;12.55;;;3.72;;
16113;SDS011;8161;-33.910;151.156;2023-04-25T13:13:04;15.32;;;3.28;;
16113;SDS011;8161;-33.910;151.156;2023-04-25T13:15:31;16.50;;;3.70;;
16113;SDS011;8161;-33.910;151.156;2023-04-25T13:17:59;15.90;;;3.87;;
16113;SDS011;8161;-33.910;151.156;2023-04-25T13:20:26;15.35;;;3.28;;
16113;SDS011;8161;-33.910;151.156;2023-04-25T13:22:53;16.52;;;3.13;;
16113;SDS011;8161;-33.910;151.156;2023-04-25T13:25:20;11.73;;;3.40;;
16113;SDS011;8161;-33.910;151.156;2023-04-25T13:27:48;16.65;;;3.88;;
16113;SDS011;8161;-33.910;151.156;2023-04-25T13:30:18;16.58;;;3.53;;
16113;SDS011;8161;-33.910;151.156;2023-04-25T13:32:45;15.70;;;3.30;;
16113;SDS011;8161;-33.910;151.156;2023-04-25T13:35:13;15.70;;;3.50;;
16113;SDS011;8161;-33.910;151.156;2023-04-25T13:37:40;15.88;;;3.47;;
16113;SDS011;8161;-33.910;151.156;2023-04-25T13:40:08;18.38;;;3.55;;
16113;SDS011;8161;-33.910;151.156;2023-04-25T13:42:37;14.40;;;3.90;;
16113;SDS011;8161;-33.910;151.156;2023-04-25T13:45:06;12.70;;;3.53;;
16113;SDS011;8161;-33.910;151.156;2023-04-25T13:47:33;14.15;;;3.55;;
16113;SDS011;8161;-33.910;151.156;2023-04-25T13:50:01;13.75;;;4.07;;
16113;SDS011;8161;-33.910;151.156;2023-04-25T13:52:31;11.60;;;3.25;;
16113;SDS011;8161;-33.910;151.156;2023-04-25T13:55:04;15.27;;;3.22;;
16113;SDS011;8161;-33.910;151.156;2023-04-25T13:57:32;16.52;;;3.65;;
16113;SDS011;8161;-33.910;151.156;2023-04-25T14:00:00;16.55;;;3.50;;
16113;SDS011;8161;-33.910;151.156;2023-04-25T14:02:35;14.32;;;3.80;;
16113;SDS011;8161;-33.910;151.156;2023-04-25T14:05:03;17.95;;;3.50;;
16113;SDS011;8161;-33.910;151.156;2023-04-25T14:07:34;14.23;;;3.67;;
16113;SDS011;8161;-33.910;151.156;2023-04-25T14:10:02;15.52;;;4.00;;
16113;SDS011;8161;-33.910;151.156;2023-04-25T14:12:31;16.58;;;3.80;;
16113;SDS011;8161;-33.910;151.156;2023-04-25T14:15:02;13.30;;;3.53;;
16113;SDS011;8161;-33.910;151.156;2023-04-25T14:17:30;16.77;;;4.07;;
16113;SDS011;8161;-33.910;151.156;2023-04-25T14:19:57;15.75;;;3.80;;
16113;SDS011;8161;-33.910;151.156;2023-04-25T14:22:25;16.27;;;3.70;;
16113;SDS011;8161;-33.910;151.156;2023-04-25T14:24:52;14.32;;;3.50;;
16113;SDS011;8161;-33.910;151.156;2023-04-25T14:27:19;15.23;;;4.03;;
16113;SDS011;8161;-33.910;151.156;2023-04-25T14:29:46;19.15;;;4.35;;
16113;SDS011;8161;-33.910;151.156;2023-04-25T14:32:13;19.98;;;4.45;;
16113;SDS011;8161;-33.910;151.156;2023-04-25T14:34:41;15.85;;;4.50;;
16113;SDS011;8161;-33.910;151.156;2023-04-25T14:37:08;17.08;;;4.18;;